sensor_id;sensor_type;location;lat;lon;timestamp;P1;durP1;ratioP1;P2;durP2;ratioP2
27293;SDS011;14785;52.556;13.430;2024-03-23T00:53:47;34.85;;;14.60;;
27293;SDS011;14785;52.556;13.430;2024-03-23T00:56:12;34.47;;;13.73;;
27293;SDS011;14785;52.556;13.430;2024-03-23T00:58:39;37.15;;;11.80;;
27293;SDS011;14785;52.556;13.430;2024-03-23T01:01:05;40.53;;;14.00;;
27293;SDS011;14785;52.556;13.430;2024-03-23T01:03:30;38.40;;;14.00;;
27293;SDS011;14785;52.556;13.430;2024-03-23T01:05:59;34.70;;;12.80;;
27293;SDS011;14785;52.556;13.430;2024-03-23T01:08:25;33.67;;;14.63;;
27293;SDS011;14785;52.556;13.430;2024-03-23T01:11:00;32.13;;;12.90;;
27293;SDS011;14785;52.556;13.430;2024-03-23T01:13:27;35.33;;;14.10;;
27293;SDS011;14785;52.556;13.430;2024-03-23T01:15:55;36.83;;;14.50;;
27293;SDS011;14785;52.556;13.430;2024-03-23T01:18:24;31.83;;;13.75;;
27293;SDS011;14785;52.556;13.430;2024-03-23T01:20:54;39.83;;;15.05;;
27293;SDS011;14785;52.556;13.430;2024-03-23T01:23:19;33.20;;;13.53;;
27293;SDS011;14785;52.556;13.430;2024-03-23T01:25:51;29.73;;;11.90;;
27293;SDS011;14785;52.556;13.430;2024-03-23T01:28:18;35.88;;;14.70;;
27293;SDS011;14785;52.556;13.430;2024-03-23T01:30:43;41.37;;;16.93;;
27293;SDS011;14785;52.556;13.430;2024-03-23T01:33:10;36.75;;;15.80;;
27293;SDS011;14785;52.556;13.430;2024-03-23T01:35:35;37.80;;;13.70;;
27293;SDS011;14785;52.556;13.430;2024-03-23T01:38:00;52.40;;;26.70;;
27293;SDS011;14785;52.556;13.430;2024-03-23T01:40:26;37.57;;;16.20;;
27293;SDS011;14785;52.556;13.430;2024-03-23T01:45:26;43.85;;;12.73;;
27293;SDS011;14785;52.556;13.430;2024-03-23T01:47:52;38.27;;;12.37;;
27293;SDS011;14785;52.556;13.430;2024-03-23T01:50:18;42.70;;;13.73;;
27293;SDS011;14785;52.556;13.430;2024-03-23T01:52:48;38.03;;;14.25;;
27293;SDS011;14785;52.556;13.430;2024-03-23T01:57:40;36.03;;;14.52;;
27293;SDS011;14785;52.556;13.430;2024-03-23T02:00:06;43.00;;;14.00;;
27293;SDS011;14785;52.556;13.430;2024-03-23T02:02:32;36.95;;;16.00;;
27293;SDS011;14785;52.556;13.430;2024-03-23T02:04:58;40.73;;;15.90;;
27293;SDS011;14785;52.556;13.430;2024-03-23T02:07:24;40.50;;;14.67;;
27293;SDS011;14785;52.556;13.430;2024-03-23T02:12:17;42.37;;;22.43;;
27293;SDS011;14785;52.556;13.430;2024-03-23T02:14:42;38.97;;;12.43;;
27293;SDS011;14785;52.556;13.430;2024-03-23T02:17:08;54.53;;;16.57;;
27293;SDS011;14785;52.556;13.430;2024-03-23T02:19:34;45.50;;;23.50;;
27293;SDS011;14785;52.556;13.430;2024-03-23T02:21:59;45.60;;;15.27;;
27293;SDS011;14785;52.556;13.430;2024-03-23T02:24:24;43.10;;;18.43;;
27293;SDS011;14785;52.556;13.430;2024-03-23T02:26:52;51.53;;;27.52;;
27293;SDS011;14785;52.556;13.430;2024-03-23T02:29:18;50.13;;;17.10;;
27293;SDS011;14785;52.556;13.430;2024-03-23T02:31:45;39.95;;;14.20;;
27293;SDS011;14785;52.556;13.430;2024-03-23T02:34:10;42.57;;;14.93;;
27293;SDS011;14785;52.556;13.430;2024-03-23T02:36:35;45.50;;;15.43;;
27293;SDS011;14785;52.556;13.430;2024-03-23T02:39:01;45.30;;;16.67;;
27293;SDS011;14785;52.556;13.430;2024-03-23T02:41:27;45.75;;;17.42;;
27293;SDS011;14785;52.556;13.430;2024-03-23T02:43:53;33.37;;;16.00;;
27293;SDS011;14785;52.556;13.430;2024-03-23T02:46:18;44.90;;;16.60;;
27293;SDS011;14785;52.556;13.430;2024-03-23T02:48:44;45.27;;;18.00;;
27293;SDS011;14785;52.556;13.430;2024-03-23T02:51:10;36.72;;;18.55;;
27293;SDS011;14785;52.556;13.430;2024-03-23T02:53:36;41.27;;;19.57;;
27293;SDS011;14785;52.556;13.430;2024-03-23T02:56:01;42.73;;;17.03;;
27293;SDS011;14785;52.556;13.430;2024-03-23T02:58:27;44.07;;;18.00;;
27293;SDS011;14785;52.556;13.430;2024-03-23T03:00:53;48.08;;;14.90;;
27293;SDS011;14785;52.556;13.430;2024-03-23T03:03:19;56.77;;;15.57;;
27293;SDS011;14785;52.556;13.430;2024-03-23T03:05:44;47.40;;;19.20;;
27293;SDS011;14785;52.556;13.430;2024-03-23T03:08:09;39.90;;;18.93;;
27293;SDS011;14785;52.556;13.430;2024-03-23T03:10:36;45.43;;;16.63;;
27293;SDS011;14785;52.556;13.430;2024-03-23T03:15:28;46.50;;;15.73;;
27293;SDS011;14785;52.556;13.430;2024-03-23T03:17:54;42.65;;;17.35;;
27293;SDS011;14785;52.556;13.430;2024-03-23T03:20:19;39.33;;;14.47;;
27293;SDS011;14785;52.556;13.430;2024-03-23T03:22:48;40.78;;;14.52;;
27293;SDS011;14785;52.556;13.430;2024-03-23T03:25:13;52.10;;;17.93;;
27293;SDS011;14785;52.556;13.430;2024-03-23T03:27:39;47.67;;;18.70;;
27293;SDS011;14785;52.556;13.430;2024-03-23T03:30:04;45.40;;;21.30;;
27293;SDS011;14785;52.556;13.430;2024-03-23T03:32:32;42.85;;;16.95;;
27293;SDS011;14785;52.556;13.430;2024-03-23T03:34:57;40.42;;;17.40;;
27293;SDS011;14785;52.556;13.430;2024-03-23T03:37:24;39.33;;;14.90;;
27293;SDS011;14785;52.556;13.430;2024-03-23T03:39:49;41.58;;;18.30;;
27293;SDS011;14785;52.556;13.430;2024-03-23T03:42:14;36.13;;;15.43;;
27293;SDS011;14785;52.556;13.430;2024-03-23T03:44:40;31.90;;;16.10;;
27293;SDS011;14785;52.556;13.430;2024-03-23T03:47:05;45.07;;;14.77;;
27293;SDS011;14785;52.556;13.430;2024-03-23T03:49:32;41.03;;;16.25;;
27293;SDS011;14785;52.556;13.430;2024-03-23T03:54:23;38.85;;;16.27;;
27293;SDS011;14785;52.556;13.430;2024-03-23T03:56:49;31.67;;;13.33;;
27293;SDS011;14785;52.556;13.430;2024-03-23T03:59:14;35.67;;;16.33;;
27293;SDS011;14785;52.556;13.430;2024-03-23T04:01:40;32.63;;;14.82;;
27293;SDS011;14785;52.556;13.430;2024-03-23T04:04:05;29.87;;;14.47;;
27293;SDS011;14785;52.556;13.430;2024-03-23T04:06:31;22.88;;;14.98;;
27293;SDS011;14785;52.556;13.430;2024-03-23T04:08:58;26.90;;;15.43;;
27293;SDS011;14785;52.556;13.430;2024-03-23T04:11:23;29.27;;;13.17;;
27293;SDS011;14785;52.556;13.430;2024-03-23T04:13:48;23.97;;;14.50;;
27293;SDS011;14785;52.556;13.430;2024-03-23T04:16:24;26.80;;;18.03;;
27293;SDS011;14785;52.556;13.430;2024-03-23T04:18:51;31.42;;;25.98;;
27293;SDS011;14785;52.556;13.430;2024-03-23T04:21:17;30.93;;;25.37;;
27293;SDS011;14785;52.556;13.430;2024-03-23T04:23:42;34.80;;;30.43;;
27293;SDS011;14785;52.556;13.430;2024-03-23T04:26:08;25.50;;;14.10;;
27293;SDS011;14785;52.556;13.430;2024-03-23T04:28:33;25.87;;;15.73;;
27293;SDS011;14785;52.556;13.430;2024-03-23T04:31:03;26.45;;;14.70;;
27293;SDS011;14785;52.556;13.430;2024-03-23T04:33:31;26.90;;;16.27;;
27293;SDS011;14785;52.556;13.430;2024-03-23T04:35:57;25.52;;;14.75;;
27293;SDS011;14785;52.556;13.430;2024-03-23T04:38:23;27.67;;;13.90;;
27293;SDS011;14785;52.556;13.430;2024-03-23T04:40:58;28.27;;;17.13;;
27293;SDS011;14785;52.556;13.430;2024-03-23T04:43:25;28.00;;;14.95;;
27293;SDS011;14785;52.556;13.430;2024-03-23T04:45:51;28.85;;;12.93;;
27293;SDS011;14785;52.556;13.430;2024-03-23T04:48:22;37.97;;;34.33;;
27293;SDS011;14785;52.556;13.430;2024-03-23T04:50:48;28.40;;;25.55;;
27293;SDS011;14785;52.556;13.430;2024-03-23T04:53:15;33.25;;;28.67;;
27293;SDS011;14785;52.556;13.430;2024-03-23T04:55:41;35.43;;;32.10;;
27293;SDS011;14785;52.556;13.430;2024-03-23T05:00:32;38.05;;;34.75;;
27293;SDS011;14785;52.556;13.430;2024-03-23T05:02:58;20.97;;;13.63;;
27293;SDS011;14785;52.556;13.430;2024-03-23T05:05:24;22.05;;;15.63;;
27293;SDS011;14785;52.556;13.430;2024-03-23T05:07:50;15.37;;;13.67;;
27293;SDS011;14785;52.556;13.430;2024-03-23T05:10:15;19.00;;;11.60;;
27293;SDS011;14785;52.556;13.430;2024-03-23T05:12:42;25.17;;;13.75;;
27293;SDS011;14785;52.556;13.430;2024-03-23T05:15:10;15.15;;;12.38;;
27293;SDS011;14785;52.556;13.430;2024-03-23T05:17:37;19.50;;;14.05;;
27293;SDS011;14785;52.556;13.430;2024-03-23T05:20:03;22.33;;;16.77;;
27293;SDS011;14785;52.556;13.430;2024-03-23T05:22:29;21.42;;;16.38;;
27293;SDS011;14785;52.556;13.430;2024-03-23T05:27:21;21.73;;;17.17;;
27293;SDS011;14785;52.556;13.430;2024-03-23T05:29:46;34.37;;;31.03;;
27293;SDS011;14785;52.556;13.430;2024-03-23T05:32:12;135.90;;;127.35;;
27293;SDS011;14785;52.556;13.430;2024-03-23T05:34:38;27.00;;;14.53;;
27293;SDS011;14785;52.556;13.430;2024-03-23T05:37:03;21.47;;;15.53;;
27293;SDS011;14785;52.556;13.430;2024-03-23T05:39:30;27.20;;;23.17;;
27293;SDS011;14785;52.556;13.430;2024-03-23T05:41:56;24.48;;;20.20;;
27293;SDS011;14785;52.556;13.430;2024-03-23T05:44:21;22.07;;;13.03;;
27293;SDS011;14785;52.556;13.430;2024-03-23T05:46:47;27.37;;;15.43;;
27293;SDS011;14785;52.556;13.430;2024-03-23T05:49:16;21.35;;;14.75;;
27293;SDS011;14785;52.556;13.430;2024-03-23T05:51:43;36.70;;;33.25;;
27293;SDS011;14785;52.556;13.430;2024-03-23T05:54:08;18.70;;;10.53;;
27293;SDS011;14785;52.556;13.430;2024-03-23T05:56:34;27.30;;;24.10;;
27293;SDS011;14785;52.556;13.430;2024-03-23T05:58:59;31.00;;;20.33;;
27293;SDS011;14785;52.556;13.430;2024-03-23T06:01:24;32.60;;;20.07;;
27293;SDS011;14785;52.556;13.430;2024-03-23T06:03:53;41.65;;;33.80;;
27293;SDS011;14785;52.556;13.430;2024-03-23T06:06:19;32.07;;;20.00;;
27293;SDS011;14785;52.556;13.430;2024-03-23T06:08:44;31.63;;;17.30;;
27293;SDS011;14785;52.556;13.430;2024-03-23T06:11:09;20.17;;;14.27;;
27293;SDS011;14785;52.556;13.430;2024-03-23T06:13:35;21.23;;;13.33;;
27293;SDS011;14785;52.556;13.430;2024-03-23T06:16:01;25.97;;;13.20;;
27293;SDS011;14785;52.556;13.430;2024-03-23T06:18:26;34.97;;;14.57;;
27293;SDS011;14785;52.556;13.430;2024-03-23T06:20:52;25.38;;;17.10;;
27293;SDS011;14785;52.556;13.430;2024-03-23T06:23:18;24.67;;;13.25;;
27293;SDS011;14785;52.556;13.430;2024-03-23T06:25:45;24.80;;;13.85;;
27293;SDS011;14785;52.556;13.430;2024-03-23T06:28:11;26.83;;;15.15;;
27293;SDS011;14785;52.556;13.430;2024-03-23T06:30:36;21.07;;;14.00;;
27293;SDS011;14785;52.556;13.430;2024-03-23T06:33:01;25.13;;;13.20;;
27293;SDS011;14785;52.556;13.430;2024-03-23T06:35:27;22.80;;;12.00;;
27293;SDS011;14785;52.556;13.430;2024-03-23T06:37:52;18.57;;;11.17;;
27293;SDS011;14785;52.556;13.430;2024-03-23T06:40:18;21.27;;;14.27;;
27293;SDS011;14785;52.556;13.430;2024-03-23T06:42:45;21.13;;;12.97;;
27293;SDS011;14785;52.556;13.430;2024-03-23T06:45:12;19.52;;;12.98;;
27293;SDS011;14785;52.556;13.430;2024-03-23T06:47:37;23.50;;;13.80;;
27293;SDS011;14785;52.556;13.430;2024-03-23T06:50:03;18.40;;;11.30;;
27293;SDS011;14785;52.556;13.430;2024-03-23T06:52:29;21.70;;;12.60;;
27293;SDS011;14785;52.556;13.430;2024-03-23T06:54:55;25.33;;;15.63;;
27293;SDS011;14785;52.556;13.430;2024-03-23T06:57:22;21.17;;;13.82;;
27293;SDS011;14785;52.556;13.430;2024-03-23T06:59:48;27.70;;;13.53;;
27293;SDS011;14785;52.556;13.430;2024-03-23T07:02:13;25.13;;;13.98;;
27293;SDS011;14785;52.556;13.430;2024-03-23T07:04:39;22.47;;;15.27;;
27293;SDS011;14785;52.556;13.430;2024-03-23T07:07:05;29.87;;;24.03;;
27293;SDS011;14785;52.556;13.430;2024-03-23T07:09:31;33.13;;;21.27;;
27293;SDS011;14785;52.556;13.430;2024-03-23T07:11:57;19.73;;;11.10;;
27293;SDS011;14785;52.556;13.430;2024-03-23T07:14:23;21.42;;;14.15;;
27293;SDS011;14785;52.556;13.430;2024-03-23T07:16:51;22.58;;;12.27;;
27293;SDS011;14785;52.556;13.430;2024-03-23T07:19:16;28.03;;;25.20;;
27293;SDS011;14785;52.556;13.430;2024-03-23T07:21:45;18.75;;;16.75;;
27293;SDS011;14785;52.556;13.430;2024-03-23T07:24:12;26.98;;;14.55;;
27293;SDS011;14785;52.556;13.430;2024-03-23T07:26:38;18.13;;;12.87;;
27293;SDS011;14785;52.556;13.430;2024-03-23T07:31:30;30.27;;;27.23;;
27293;SDS011;14785;52.556;13.430;2024-03-23T07:33:55;39.03;;;35.73;;
27293;SDS011;14785;52.556;13.430;2024-03-23T07:36:21;36.30;;;32.93;;
27293;SDS011;14785;52.556;13.430;2024-03-23T07:38:46;24.70;;;15.10;;
27293;SDS011;14785;52.556;13.430;2024-03-23T07:41:14;24.27;;;13.63;;
27293;SDS011;14785;52.556;13.430;2024-03-23T07:43:44;20.67;;;11.52;;
27293;SDS011;14785;52.556;13.430;2024-03-23T07:46:09;20.27;;;13.77;;
27293;SDS011;14785;52.556;13.430;2024-03-23T07:48:37;22.77;;;12.50;;
27293;SDS011;14785;52.556;13.430;2024-03-23T07:51:03;19.98;;;10.43;;
27293;SDS011;14785;52.556;13.430;2024-03-23T07:53:34;13.32;;;9.07;;
27293;SDS011;14785;52.556;13.430;2024-03-23T08:00:53;24.60;;;21.52;;
27293;SDS011;14785;52.556;13.430;2024-03-23T08:03:19;20.20;;;17.63;;
27293;SDS011;14785;52.556;13.430;2024-03-23T08:05:45;27.33;;;24.73;;
27293;SDS011;14785;52.556;13.430;2024-03-23T08:08:14;27.13;;;24.48;;
27293;SDS011;14785;52.556;13.430;2024-03-23T08:10:49;34.13;;;31.25;;
27293;SDS011;14785;52.556;13.430;2024-03-23T08:13:16;23.75;;;13.52;;
27293;SDS011;14785;52.556;13.430;2024-03-23T08:15:42;15.88;;;12.82;;
27293;SDS011;14785;52.556;13.430;2024-03-23T08:18:09;20.80;;;18.60;;
27293;SDS011;14785;52.556;13.430;2024-03-23T08:20:40;18.65;;;13.85;;
27293;SDS011;14785;52.556;13.430;2024-03-23T08:23:07;16.75;;;12.73;;
27293;SDS011;14785;52.556;13.430;2024-03-23T08:25:34;19.23;;;16.85;;
27293;SDS011;14785;52.556;13.430;2024-03-23T08:28:00;24.83;;;22.42;;
27293;SDS011;14785;52.556;13.430;2024-03-23T08:30:25;19.20;;;15.47;;
27293;SDS011;14785;52.556;13.430;2024-03-23T08:32:51;31.13;;;28.35;;
27293;SDS011;14785;52.556;13.430;2024-03-23T08:35:16;17.63;;;15.63;;
27293;SDS011;14785;52.556;13.430;2024-03-23T08:37:42;25.35;;;22.80;;
27293;SDS011;14785;52.556;13.430;2024-03-23T08:40:08;22.47;;;18.63;;
27293;SDS011;14785;52.556;13.430;2024-03-23T08:42:34;17.98;;;15.95;;
27293;SDS011;14785;52.556;13.430;2024-03-23T08:47:25;50.10;;;45.65;;
27293;SDS011;14785;52.556;13.430;2024-03-23T08:49:51;45.63;;;41.63;;
27293;SDS011;14785;52.556;13.430;2024-03-23T08:52:17;128.00;;;120.30;;
27293;SDS011;14785;52.556;13.430;2024-03-23T08:54:42;71.57;;;66.73;;
27293;SDS011;14785;52.556;13.430;2024-03-23T08:57:08;122.07;;;114.83;;
27293;SDS011;14785;52.556;13.430;2024-03-23T08:59:34;242.88;;;229.88;;
27293;SDS011;14785;52.556;13.430;2024-03-23T09:01:59;205.13;;;193.82;;
27293;SDS011;14785;52.556;13.430;2024-03-23T09:04:26;82.53;;;77.10;;
27293;SDS011;14785;52.556;13.430;2024-03-23T09:06:51;166.30;;;156.48;;
27293;SDS011;14785;52.556;13.430;2024-03-23T09:09:17;196.07;;;185.03;;
27293;SDS011;14785;52.556;13.430;2024-03-23T09:11:42;146.80;;;138.07;;
27293;SDS011;14785;52.556;13.430;2024-03-23T09:14:09;194.75;;;184.32;;
27293;SDS011;14785;52.556;13.430;2024-03-23T09:16:34;117.60;;;110.90;;
27293;SDS011;14785;52.556;13.430;2024-03-23T09:19:01;119.55;;;112.55;;
27293;SDS011;14785;52.556;13.430;2024-03-23T09:21:27;88.50;;;83.07;;
27293;SDS011;14785;52.556;13.430;2024-03-23T09:23:53;205.27;;;194.45;;
27293;SDS011;14785;52.556;13.430;2024-03-23T09:26:19;173.48;;;164.10;;
27293;SDS011;14785;52.556;13.430;2024-03-23T09:28:45;372.83;;;354.20;;
27293;SDS011;14785;52.556;13.430;2024-03-23T09:31:13;151.38;;;143.30;;
27293;SDS011;14785;52.556;13.430;2024-03-23T09:33:40;115.45;;;109.30;;
27293;SDS011;14785;52.556;13.430;2024-03-23T09:36:06;166.32;;;157.35;;
27293;SDS011;14785;52.556;13.430;2024-03-23T09:38:32;366.92;;;347.95;;
27293;SDS011;14785;52.556;13.430;2024-03-23T09:40:58;167.93;;;158.55;;
27293;SDS011;14785;52.556;13.430;2024-03-23T09:43:24;190.43;;;179.98;;
27293;SDS011;14785;52.556;13.430;2024-03-23T09:48:17;234.00;;;221.07;;
27293;SDS011;14785;52.556;13.430;2024-03-23T09:50:43;248.38;;;234.95;;
27293;SDS011;14785;52.556;13.430;2024-03-23T09:53:10;342.48;;;324.58;;
27293;SDS011;14785;52.556;13.430;2024-03-23T09:55:37;269.52;;;255.27;;
27293;SDS011;14785;52.556;13.430;2024-03-23T09:58:04;144.20;;;135.75;;
27293;SDS011;14785;52.556;13.430;2024-03-23T10:00:34;233.05;;;220.18;;
27293;SDS011;14785;52.556;13.430;2024-03-23T10:03:00;149.13;;;140.63;;
27293;SDS011;14785;52.556;13.430;2024-03-23T10:05:29;190.55;;;179.38;;
27293;SDS011;14785;52.556;13.430;2024-03-23T10:10:38;126.90;;;118.97;;
27293;SDS011;14785;52.556;13.430;2024-03-23T10:13:05;235.15;;;222.85;;
27293;SDS011;14785;52.556;13.430;2024-03-23T10:15:30;357.27;;;339.33;;
27293;SDS011;14785;52.556;13.430;2024-03-23T10:18:18;294.35;;;279.15;;
27293;SDS011;14785;52.556;13.430;2024-03-23T10:20:50;212.23;;;200.15;;
27293;SDS011;14785;52.556;13.430;2024-03-23T10:23:38;314.58;;;296.88;;
27293;SDS011;14785;52.556;13.430;2024-03-23T10:31:33;93.85;;;87.88;;
27293;SDS011;14785;52.556;13.430;2024-03-23T10:34:02;128.30;;;119.70;;
27293;SDS011;14785;52.556;13.430;2024-03-23T10:36:29;96.82;;;90.72;;
27293;SDS011;14785;52.556;13.430;2024-03-23T10:38:55;290.05;;;274.67;;
27293;SDS011;14785;52.556;13.430;2024-03-23T10:41:41;304.98;;;289.20;;
27293;SDS011;14785;52.556;13.430;2024-03-23T10:44:10;195.00;;;184.52;;
27293;SDS011;14785;52.556;13.430;2024-03-23T10:46:36;221.93;;;209.50;;
27293;SDS011;14785;52.556;13.430;2024-03-23T10:49:02;235.85;;;222.82;;
27293;SDS011;14785;52.556;13.430;2024-03-23T10:51:44;249.32;;;235.13;;
27293;SDS011;14785;52.556;13.430;2024-03-23T10:54:12;349.42;;;332.17;;
27293;SDS011;14785;52.556;13.430;2024-03-23T10:56:38;390.48;;;370.77;;
27293;SDS011;14785;52.556;13.430;2024-03-23T10:59:05;295.60;;;280.20;;
27293;SDS011;14785;52.556;13.430;2024-03-23T11:01:33;196.18;;;184.85;;
27293;SDS011;14785;52.556;13.430;2024-03-23T11:06:35;141.27;;;132.65;;
27293;SDS011;14785;52.556;13.430;2024-03-23T11:09:01;79.38;;;73.82;;
27293;SDS011;14785;52.556;13.430;2024-03-23T11:11:27;57.73;;;52.77;;
27293;SDS011;14785;52.556;13.430;2024-03-23T11:13:57;67.60;;;62.60;;
27293;SDS011;14785;52.556;13.430;2024-03-23T11:18:53;37.85;;;34.65;;
27293;SDS011;14785;52.556;13.430;2024-03-23T11:21:51;40.47;;;37.08;;
27293;SDS011;14785;52.556;13.430;2024-03-23T11:24:21;52.63;;;48.85;;
27293;SDS011;14785;52.556;13.430;2024-03-23T11:26:47;69.07;;;64.47;;
27293;SDS011;14785;52.556;13.430;2024-03-23T11:29:17;65.25;;;61.03;;
27293;SDS011;14785;52.556;13.430;2024-03-23T11:31:51;77.40;;;72.32;;
27293;SDS011;14785;52.556;13.430;2024-03-23T11:34:18;131.57;;;124.00;;
27293;SDS011;14785;52.556;13.430;2024-03-23T11:36:44;137.52;;;129.57;;
27293;SDS011;14785;52.556;13.430;2024-03-23T11:39:15;66.45;;;61.70;;
27293;SDS011;14785;52.556;13.430;2024-03-23T11:42:00;58.13;;;53.88;;
27293;SDS011;14785;52.556;13.430;2024-03-23T11:44:26;55.67;;;51.88;;
27293;SDS011;14785;52.556;13.430;2024-03-23T11:51:51;58.83;;;54.55;;
27293;SDS011;14785;52.556;13.430;2024-03-23T11:54:19;62.45;;;57.83;;
27293;SDS011;14785;52.556;13.430;2024-03-23T11:57:02;132.02;;;123.28;;
27293;SDS011;14785;52.556;13.430;2024-03-23T11:59:39;103.00;;;96.07;;
27293;SDS011;14785;52.556;13.430;2024-03-23T12:02:09;112.30;;;104.93;;
27293;SDS011;14785;52.556;13.430;2024-03-23T12:04:40;99.50;;;93.38;;
27293;SDS011;14785;52.556;13.430;2024-03-23T12:07:15;79.95;;;74.68;;
27293;SDS011;14785;52.556;13.430;2024-03-23T12:09:45;75.90;;;70.18;;
27293;SDS011;14785;52.556;13.430;2024-03-23T12:12:18;66.53;;;61.22;;
27293;SDS011;14785;52.556;13.430;2024-03-23T12:15:03;74.65;;;69.65;;
27293;SDS011;14785;52.556;13.430;2024-03-23T12:17:31;40.92;;;37.22;;
27293;SDS011;14785;52.556;13.430;2024-03-23T12:19:57;35.00;;;31.70;;
27293;SDS011;14785;52.556;13.430;2024-03-23T12:22:22;54.27;;;50.23;;
27293;SDS011;14785;52.556;13.430;2024-03-23T12:27:14;30.33;;;27.75;;
27293;SDS011;14785;52.556;13.430;2024-03-23T12:29:41;46.13;;;42.40;;
27293;SDS011;14785;52.556;13.430;2024-03-23T12:32:08;92.70;;;86.90;;
27293;SDS011;14785;52.556;13.430;2024-03-23T12:34:35;104.53;;;97.75;;
27293;SDS011;14785;52.556;13.430;2024-03-23T12:37:01;37.67;;;34.70;;
27293;SDS011;14785;52.556;13.430;2024-03-23T12:39:26;46.33;;;42.53;;
27293;SDS011;14785;52.556;13.430;2024-03-23T12:41:52;82.37;;;76.80;;
27293;SDS011;14785;52.556;13.430;2024-03-23T12:44:37;29.75;;;26.33;;
27293;SDS011;14785;52.556;13.430;2024-03-23T12:47:02;89.73;;;83.50;;
27293;SDS011;14785;52.556;13.430;2024-03-23T12:49:28;58.10;;;54.25;;
27293;SDS011;14785;52.556;13.430;2024-03-23T12:51:54;41.90;;;38.28;;
27293;SDS011;14785;52.556;13.430;2024-03-23T12:54:22;70.90;;;66.35;;
27293;SDS011;14785;52.556;13.430;2024-03-23T12:56:49;45.65;;;42.15;;
27293;SDS011;14785;52.556;13.430;2024-03-23T12:59:14;14.93;;;9.95;;
27293;SDS011;14785;52.556;13.430;2024-03-23T13:01:42;84.70;;;79.20;;
27293;SDS011;14785;52.556;13.430;2024-03-23T13:04:08;67.60;;;62.58;;
27293;SDS011;14785;52.556;13.430;2024-03-23T13:06:34;58.10;;;54.03;;
27293;SDS011;14785;52.556;13.430;2024-03-23T13:09:00;40.87;;;37.97;;
27293;SDS011;14785;52.556;13.430;2024-03-23T13:11:28;49.33;;;45.58;;
27293;SDS011;14785;52.556;13.430;2024-03-23T13:13:53;29.87;;;27.53;;
27293;SDS011;14785;52.556;13.430;2024-03-23T13:16:19;16.40;;;13.97;;
27293;SDS011;14785;52.556;13.430;2024-03-23T13:18:44;43.27;;;40.20;;
27293;SDS011;14785;52.556;13.430;2024-03-23T13:21:10;80.50;;;75.28;;
27293;SDS011;14785;52.556;13.430;2024-03-23T13:23:36;61.63;;;57.63;;
27293;SDS011;14785;52.556;13.430;2024-03-23T13:26:03;40.42;;;37.28;;
27293;SDS011;14785;52.556;13.430;2024-03-23T13:28:28;17.02;;;13.90;;
27293;SDS011;14785;52.556;13.430;2024-03-23T13:30:56;17.38;;;15.65;;
27293;SDS011;14785;52.556;13.430;2024-03-23T13:33:29;15.63;;;11.43;;
27293;SDS011;14785;52.556;13.430;2024-03-23T13:35:57;16.67;;;11.30;;
27293;SDS011;14785;52.556;13.430;2024-03-23T13:38:23;16.35;;;10.02;;
27293;SDS011;14785;52.556;13.430;2024-03-23T13:40:52;17.33;;;11.68;;
27293;SDS011;14785;52.556;13.430;2024-03-23T13:43:19;14.52;;;10.00;;
27293;SDS011;14785;52.556;13.430;2024-03-23T13:45:46;16.03;;;9.40;;
27293;SDS011;14785;52.556;13.430;2024-03-23T13:48:14;15.27;;;9.32;;
27293;SDS011;14785;52.556;13.430;2024-03-23T13:50:40;15.60;;;11.02;;
27293;SDS011;14785;52.556;13.430;2024-03-23T13:53:06;17.07;;;10.90;;
27293;SDS011;14785;52.556;13.430;2024-03-23T13:55:33;14.70;;;9.93;;
27293;SDS011;14785;52.556;13.430;2024-03-23T13:57:58;24.17;;;18.73;;
27293;SDS011;14785;52.556;13.430;2024-03-23T14:00:23;15.10;;;10.33;;
27293;SDS011;14785;52.556;13.430;2024-03-23T14:05:15;21.27;;;11.37;;
27293;SDS011;14785;52.556;13.430;2024-03-23T14:07:41;18.90;;;11.27;;
27293;SDS011;14785;52.556;13.430;2024-03-23T14:10:06;18.37;;;12.60;;
27293;SDS011;14785;52.556;13.430;2024-03-23T14:12:32;20.45;;;11.95;;
27293;SDS011;14785;52.556;13.430;2024-03-23T14:14:57;18.33;;;13.57;;
27293;SDS011;14785;52.556;13.430;2024-03-23T14:17:23;19.67;;;11.30;;
27293;SDS011;14785;52.556;13.430;2024-03-23T14:19:48;24.17;;;11.47;;
27293;SDS011;14785;52.556;13.430;2024-03-23T14:24:42;22.73;;;11.98;;
27293;SDS011;14785;52.556;13.430;2024-03-23T14:27:08;22.02;;;12.30;;
27293;SDS011;14785;52.556;13.430;2024-03-23T14:29:33;20.60;;;9.37;;
27293;SDS011;14785;52.556;13.430;2024-03-23T14:31:59;15.15;;;10.25;;
27293;SDS011;14785;52.556;13.430;2024-03-23T14:34:26;19.00;;;9.65;;
27293;SDS011;14785;52.556;13.430;2024-03-23T14:36:53;14.40;;;10.65;;
27293;SDS011;14785;52.556;13.430;2024-03-23T14:39:22;18.98;;;14.20;;
27293;SDS011;14785;52.556;13.430;2024-03-23T14:41:49;15.70;;;9.60;;
27293;SDS011;14785;52.556;13.430;2024-03-23T14:44:15;16.15;;;10.10;;
27293;SDS011;14785;52.556;13.430;2024-03-23T14:46:41;19.07;;;17.43;;
27293;SDS011;14785;52.556;13.430;2024-03-23T14:49:06;14.87;;;11.07;;
27293;SDS011;14785;52.556;13.430;2024-03-23T14:51:32;15.38;;;10.35;;
27293;SDS011;14785;52.556;13.430;2024-03-23T14:53:58;14.70;;;13.38;;
27293;SDS011;14785;52.556;13.430;2024-03-23T14:56:23;13.73;;;12.43;;
27293;SDS011;14785;52.556;13.430;2024-03-23T14:58:52;12.83;;;11.60;;
27293;SDS011;14785;52.556;13.430;2024-03-23T15:01:17;41.47;;;38.65;;
27293;SDS011;14785;52.556;13.430;2024-03-23T15:03:43;49.83;;;45.93;;
27293;SDS011;14785;52.556;13.430;2024-03-23T15:06:09;28.40;;;25.88;;
27293;SDS011;14785;52.556;13.430;2024-03-23T15:08:35;252.05;;;237.93;;
27293;SDS011;14785;52.556;13.430;2024-03-23T15:11:05;64.07;;;59.20;;
27293;SDS011;14785;52.556;13.430;2024-03-23T15:13:32;41.60;;;37.90;;
27293;SDS011;14785;52.556;13.430;2024-03-23T15:18:23;57.07;;;53.07;;
27293;SDS011;14785;52.556;13.430;2024-03-23T15:20:56;32.03;;;29.15;;
27293;SDS011;14785;52.556;13.430;2024-03-23T15:23:23;25.38;;;23.20;;
27293;SDS011;14785;52.556;13.430;2024-03-23T15:25:58;13.20;;;10.68;;
27293;SDS011;14785;52.556;13.430;2024-03-23T15:28:25;18.80;;;17.02;;
27293;SDS011;14785;52.556;13.430;2024-03-23T15:31:04;18.85;;;16.30;;
27293;SDS011;14785;52.556;13.430;2024-03-23T15:33:31;19.98;;;18.17;;
27293;SDS011;14785;52.556;13.430;2024-03-23T15:35:59;13.40;;;12.07;;
27293;SDS011;14785;52.556;13.430;2024-03-23T15:38:25;15.88;;;13.23;;
27293;SDS011;14785;52.556;13.430;2024-03-23T15:40:53;14.00;;;12.07;;
27293;SDS011;14785;52.556;13.430;2024-03-23T15:43:18;13.52;;;11.20;;
27293;SDS011;14785;52.556;13.430;2024-03-23T15:45:44;15.55;;;10.98;;
27293;SDS011;14785;52.556;13.430;2024-03-23T15:48:19;14.10;;;11.55;;
27293;SDS011;14785;52.556;13.430;2024-03-23T15:50:53;11.47;;;9.40;;
27293;SDS011;14785;52.556;13.430;2024-03-23T15:53:26;11.25;;;8.30;;
27293;SDS011;14785;52.556;13.430;2024-03-23T15:55:56;10.38;;;7.88;;